createdAt,value
2018-08-30T00:02:26.332Z,97056.00
2018-08-30T00:04:55.665Z,97044.00
2018-08-30T00:07:24.879Z,97060.00
2018-08-30T00:09:54.138Z,97069.00
2018-08-30T00:12:24.178Z,97075.00
2018-08-30T00:14:53.444Z,97085.00
2018-08-30T00:17:22.642Z,97091.00
2018-08-30T00:19:51.919Z,97077.00
2018-08-30T00:22:21.150Z,97080.00
2018-08-30T00:24:50.433Z,97078.00
2018-08-30T00:27:19.802Z,97073.00
2018-08-30T00:29:49.294Z,97075.00
2018-08-30T00:32:18.543Z,97073.00
2018-08-30T00:34:47.818Z,97062.00
2018-08-30T00:37:17.046Z,97059.00
2018-08-30T00:39:46.336Z,97060.00
2018-08-30T00:42:15.614Z,97057.00
2018-08-30T00:44:44.860Z,97055.00
2018-08-30T00:47:19.462Z,97047.00
2018-08-30T00:49:48.741Z,97049.00
2018-08-30T00:52:18.480Z,97048.00
2018-08-30T00:54:48.005Z,97061.00
2018-08-30T00:57:17.710Z,97055.00
2018-08-30T00:59:47.270Z,97065.00
2018-08-30T01:02:16.543Z,97065.00
2018-08-30T01:04:45.825Z,97063.00
2018-08-30T01:07:15.145Z,97066.00
2018-08-30T01:09:44.422Z,97071.00
2018-08-30T01:12:13.668Z,97075.00
2018-08-30T01:14:42.937Z,97074.00
2018-08-30T01:17:12.171Z,97072.00
2018-08-30T01:19:41.438Z,97078.00
2018-08-30T01:22:10.750Z,97090.00
2018-08-30T01:24:40.092Z,97091.00
2018-08-30T01:27:09.486Z,97094.00
2018-08-30T01:29:38.847Z,97094.00
2018-08-30T01:32:08.195Z,97097.00
2018-08-30T01:34:37.558Z,97097.00
2018-08-30T01:37:06.842Z,97094.00
2018-08-30T01:39:36.146Z,97098.00
2018-08-30T01:42:05.507Z,97093.00
2018-08-30T01:44:34.780Z,97093.00
2018-08-30T01:47:04.099Z,97083.00
2018-08-30T01:49:33.464Z,97087.00
2018-08-30T01:52:03.486Z,97088.00
2018-08-30T01:54:32.897Z,97086.00
2018-08-30T01:57:02.330Z,97082.00
2018-08-30T01:59:31.668Z,97083.00
2018-08-30T02:02:00.973Z,97079.00
2018-08-30T02:04:30.335Z,97090.00
2018-08-30T02:07:00.646Z,97076.00
2018-08-30T02:09:29.962Z,97077.00
2018-08-30T02:11:59.477Z,97089.00
2018-08-30T02:14:28.961Z,97090.00
2018-08-30T02:16:58.321Z,97078.00
2018-08-30T02:19:27.588Z,97082.00
2018-08-30T02:21:57.066Z,97077.00
2018-08-30T02:24:26.341Z,97076.00
2018-08-30T02:26:55.569Z,97079.00
2018-08-30T02:29:24.843Z,97080.00
2018-08-30T02:31:54.041Z,97078.00
2018-08-30T02:34:23.261Z,97076.00
2018-08-30T02:36:52.500Z,97077.00
2018-08-30T02:39:21.775Z,97079.00
2018-08-30T02:41:51.772Z,97079.00
2018-08-30T02:44:21.014Z,97084.00
2018-08-30T02:46:50.231Z,97086.00
2018-08-30T02:49:19.471Z,97088.00
2018-08-30T02:51:48.693Z,97085.00
2018-08-30T02:54:17.941Z,97077.00
2018-08-30T02:56:47.189Z,97085.00
2018-08-30T02:59:16.459Z,97101.00
2018-08-30T03:01:45.657Z,97092.00
2018-08-30T03:04:14.905Z,97088.00
2018-08-30T03:06:44.104Z,97090.00
2018-08-30T03:09:13.330Z,97107.00
2018-08-30T03:11:42.583Z,97098.00
2018-08-30T03:14:12.433Z,97092.00
2018-08-30T03:16:41.837Z,97095.00
2018-08-30T03:19:11.091Z,97080.00
2018-08-30T03:21:40.330Z,97096.00
2018-08-30T03:24:09.557Z,97108.00
2018-08-30T03:26:38.792Z,97105.00
2018-08-30T03:29:08.014Z,97113.00
2018-08-30T03:31:37.266Z,97113.00
2018-08-30T03:34:06.481Z,97114.00
2018-08-30T03:36:35.732Z,97110.00
2018-08-30T03:39:06.484Z,97103.00
2018-08-30T03:41:35.721Z,97108.00
2018-08-30T03:44:04.951Z,97114.00
2018-08-30T03:46:34.201Z,97103.00
2018-08-30T03:49:03.437Z,97094.00
2018-08-30T03:51:32.652Z,97100.00
2018-08-30T03:54:01.881Z,97101.00
2018-08-30T03:56:31.126Z,97075.00
2018-08-30T03:59:00.335Z,97098.00
2018-08-30T04:01:29.606Z,97108.00
2018-08-30T04:03:58.865Z,97099.00
2018-08-30T04:06:28.101Z,97099.00
2018-08-30T04:08:57.349Z,97094.00
2018-08-30T04:11:26.589Z,97095.00
2018-08-30T04:13:55.801Z,97096.00
2018-08-30T04:16:25.049Z,97096.00
2018-08-30T04:18:59.216Z,97101.00
2018-08-30T04:21:28.457Z,97102.00
2018-08-30T04:23:57.666Z,97096.00
2018-08-30T04:26:26.923Z,97097.00
2018-08-30T04:28:56.138Z,97093.00
2018-08-30T04:31:25.472Z,97094.00
2018-08-30T04:33:54.674Z,97094.00
2018-08-30T04:36:24.167Z,97102.00
2018-08-30T04:38:53.666Z,97101.00
2018-08-30T04:41:22.909Z,97096.00
2018-08-30T04:43:52.130Z,97096.00
2018-08-30T04:46:21.384Z,97094.00
2018-08-30T04:48:50.604Z,97097.00
2018-08-30T04:51:19.845Z,97089.00
2018-08-30T04:53:49.064Z,97106.00
2018-08-30T04:56:18.282Z,97104.00
2018-08-30T04:58:47.524Z,97091.00
2018-08-30T05:01:16.797Z,97093.00
2018-08-30T05:03:46.033Z,97090.00
2018-08-30T05:06:15.270Z,97093.00
2018-08-30T05:08:44.549Z,97098.00
2018-08-30T05:11:13.817Z,97090.00
2018-08-30T05:13:43.042Z,97095.00
2018-08-30T05:16:12.313Z,97096.00
2018-08-30T05:18:41.529Z,97085.00
2018-08-30T05:21:10.762Z,97096.00
2018-08-30T05:23:40.009Z,97105.00
2018-08-30T05:26:09.260Z,97105.00
2018-08-30T05:28:38.509Z,97122.00
2018-08-30T05:31:07.733Z,97123.00
2018-08-30T05:33:37.028Z,97117.00
2018-08-30T05:36:06.263Z,97118.00
2018-08-30T05:38:35.534Z,97115.00
2018-08-30T05:41:04.843Z,97124.00
2018-08-30T05:43:34.085Z,97130.00
2018-08-30T05:46:03.346Z,97113.00
2018-08-30T05:48:32.632Z,97127.00
2018-08-30T05:51:01.936Z,97118.00
2018-08-30T05:53:31.202Z,97114.00
2018-08-30T05:56:00.512Z,97118.00
2018-08-30T05:58:29.814Z,97118.00
2018-08-30T06:00:59.088Z,97112.00
2018-08-30T06:03:28.413Z,97126.00
2018-08-30T06:05:57.652Z,97132.00
2018-08-30T06:08:26.951Z,97130.00
2018-08-30T06:10:56.125Z,97140.00
2018-08-30T06:13:25.326Z,97149.00
2018-08-30T06:15:54.718Z,97142.00
2018-08-30T06:18:24.319Z,97145.00
2018-08-30T06:20:53.561Z,97145.00
2018-08-30T06:23:22.787Z,97145.00
2018-08-30T06:25:52.026Z,97150.00
2018-08-30T06:28:21.254Z,97143.00
2018-08-30T06:30:50.500Z,97156.00
2018-08-30T06:33:19.985Z,97157.00
2018-08-30T06:35:49.243Z,97161.00
2018-08-30T06:38:18.445Z,97161.00
2018-08-30T06:40:47.734Z,97158.00
2018-08-30T06:43:16.937Z,97168.00
2018-08-30T06:45:46.145Z,97163.00
2018-08-30T06:48:15.370Z,97177.00
2018-08-30T06:50:44.604Z,97182.00
2018-08-30T06:53:13.856Z,97180.00
2018-08-30T06:55:43.092Z,97183.00
2018-08-30T06:58:12.370Z,97198.00
2018-08-30T07:00:41.610Z,97185.00
2018-08-30T07:03:10.842Z,97192.00
2018-08-30T07:05:40.101Z,97195.00
2018-08-30T07:08:09.403Z,97200.00
2018-08-30T07:10:38.605Z,97197.00
2018-08-30T07:13:07.866Z,97197.00
2018-08-30T07:15:37.165Z,97207.00
2018-08-30T07:18:06.414Z,97216.00
2018-08-30T07:20:35.644Z,97228.00
2018-08-30T07:23:05.946Z,97208.00
2018-08-30T07:25:35.152Z,97221.00
2018-08-30T07:28:04.430Z,97231.00
2018-08-30T07:30:33.656Z,97233.00
2018-08-30T07:33:02.920Z,97238.00
2018-08-30T07:35:32.155Z,97244.00
2018-08-30T07:38:01.451Z,97252.00
2018-08-30T07:40:30.714Z,97257.00
2018-08-30T07:42:59.978Z,97261.00
2018-08-30T07:45:29.250Z,97260.00
2018-08-30T07:47:58.476Z,97267.00
2018-08-30T07:50:27.692Z,97272.00
2018-08-30T07:52:56.993Z,97280.00
2018-08-30T07:55:26.378Z,97282.00
2018-08-30T07:57:55.729Z,97279.00
2018-08-30T08:00:25.920Z,97276.00
2018-08-30T08:02:55.704Z,97281.00
2018-08-30T08:05:24.945Z,97297.00
2018-08-30T08:07:54.166Z,97286.00
2018-08-30T08:10:23.376Z,97284.00
2018-08-30T08:12:52.650Z,97303.00
2018-08-30T08:15:21.916Z,97294.00
2018-08-30T08:17:51.168Z,97303.00
2018-08-30T08:20:20.368Z,97297.00
2018-08-30T08:22:49.595Z,97301.00
2018-08-30T08:25:18.956Z,97313.00
2018-08-30T08:27:48.196Z,97313.00
2018-08-30T08:30:17.457Z,97318.00
2018-08-30T08:32:46.691Z,97320.00
2018-08-30T08:35:15.930Z,97322.00
2018-08-30T08:37:45.187Z,97330.00
2018-08-30T08:40:14.430Z,97337.00
2018-08-30T08:42:43.664Z,97328.00
2018-08-30T08:45:13.009Z,97328.00
2018-08-30T08:47:42.330Z,97335.00
2018-08-30T08:50:11.565Z,97341.00
2018-08-30T08:52:40.872Z,97340.00
2018-08-30T08:55:10.129Z,97341.00
2018-08-30T08:57:39.392Z,97342.00
2018-08-30T09:00:08.688Z,97347.00
2018-08-30T09:02:38.001Z,97348.00
2018-08-30T09:05:07.945Z,97359.00
2018-08-30T09:07:37.295Z,97351.00
2018-08-30T09:10:07.559Z,97359.00
2018-08-30T09:12:36.805Z,97356.00
2018-08-30T09:15:06.077Z,97357.00
2018-08-30T09:17:35.651Z,97362.00
2018-08-30T09:20:05.489Z,97371.00
2018-08-30T09:22:34.817Z,97367.00
2018-08-30T09:25:04.126Z,97380.00
2018-08-30T09:27:33.625Z,97382.00
2018-08-30T09:30:03.048Z,97377.00
2018-08-30T09:32:32.390Z,97379.00
2018-08-30T09:35:01.795Z,97375.00
2018-08-30T09:37:31.134Z,97373.00
2018-08-30T09:40:00.394Z,97377.00
2018-08-30T09:42:29.709Z,97388.00
2018-08-30T09:44:59.090Z,97382.00
2018-08-30T09:47:28.437Z,97388.00
2018-08-30T09:49:57.741Z,97384.00
2018-08-30T09:52:27.013Z,97390.00
2018-08-30T09:54:56.316Z,97392.00
2018-08-30T09:57:25.655Z,97387.00
2018-08-30T09:59:54.936Z,97390.00
2018-08-30T10:02:29.495Z,97401.00
2018-08-30T10:04:58.790Z,97396.00
2018-08-30T10:07:28.069Z,97411.00
2018-08-30T10:09:57.336Z,97416.00
2018-08-30T10:12:26.664Z,97414.00
2018-08-30T10:14:56.057Z,97422.00
2018-08-30T10:17:25.392Z,97430.00
2018-08-30T10:19:54.661Z,97424.00
2018-08-30T10:22:24.024Z,97433.00
2018-08-30T10:24:53.349Z,97429.00
2018-08-30T10:27:22.638Z,97417.00
2018-08-30T10:29:51.869Z,97426.00
2018-08-30T10:32:21.110Z,97420.00
2018-08-30T10:34:51.053Z,97430.00
2018-08-30T10:37:20.309Z,97424.00
2018-08-30T10:39:49.600Z,97430.00
2018-08-30T10:42:20.876Z,97446.00
2018-08-30T10:44:50.422Z,97435.00
2018-08-30T10:47:19.690Z,97426.00
2018-08-30T10:49:49.103Z,97428.00
2018-08-30T10:52:18.357Z,97433.00
2018-08-30T10:54:47.655Z,97436.00
2018-08-30T11:00:49.210Z,97452.00
2018-08-30T11:03:18.541Z,97452.00
2018-08-30T11:05:48.036Z,97447.00
2018-08-30T11:08:18.421Z,97453.00
2018-08-30T11:10:48.297Z,97459.00
2018-08-30T11:13:17.653Z,97463.00
2018-08-30T11:15:47.107Z,97463.00
2018-08-30T11:18:16.499Z,97465.00
2018-08-30T11:20:45.803Z,97468.00
2018-08-30T11:23:16.106Z,97472.00
2018-08-30T11:25:47.206Z,97470.00
2018-08-30T11:28:16.507Z,97471.00
2018-08-30T11:30:46.569Z,97496.00
2018-08-30T11:33:15.817Z,97479.00
2018-08-30T11:35:45.132Z,97486.00
2018-08-30T11:38:14.415Z,97491.00
2018-08-30T11:40:43.681Z,97488.00
2018-08-30T11:43:12.998Z,97497.00
2018-08-30T11:45:42.403Z,97501.00
2018-08-30T11:48:11.701Z,97509.00
2018-08-30T11:50:41.005Z,97499.00
2018-08-30T11:53:10.296Z,97497.00
2018-08-30T11:55:39.492Z,97495.00
2018-08-30T11:58:08.895Z,97513.00
2018-08-30T12:00:38.436Z,97511.00
2018-08-30T12:03:07.731Z,97517.00
2018-08-30T12:05:36.996Z,97528.00
2018-08-30T12:08:06.427Z,97526.00
2018-08-30T12:10:38.132Z,97525.00
2018-08-30T12:13:07.484Z,97532.00
2018-08-30T12:15:37.040Z,97521.00
2018-08-30T12:18:06.495Z,97521.00
2018-08-30T12:20:35.807Z,97528.00
2018-08-30T12:23:05.044Z,97531.00
2018-08-30T12:25:34.504Z,97531.00
2018-08-30T12:28:03.816Z,97529.00
2018-08-30T12:30:33.225Z,97534.00
2018-08-30T12:33:02.682Z,97539.00
2018-08-30T12:35:31.965Z,97538.00
2018-08-30T12:38:01.310Z,97560.00
2018-08-30T12:40:30.741Z,97557.00
2018-08-30T12:43:00.267Z,97549.00
2018-08-30T12:45:29.433Z,97548.00
2018-08-30T12:47:58.775Z,97555.00
2018-08-30T12:50:28.164Z,97547.00
2018-08-30T12:52:57.472Z,97551.00
2018-08-30T12:55:26.777Z,97552.00
2018-08-30T12:57:56.054Z,97564.00
2018-08-30T13:00:25.430Z,97556.00
2018-08-30T13:02:54.728Z,97573.00
2018-08-30T13:05:24.173Z,97571.00
2018-08-30T13:07:53.474Z,97559.00
2018-08-30T13:10:22.902Z,97561.00
2018-08-30T13:12:52.401Z,97560.00
2018-08-30T13:15:21.856Z,97563.00
2018-08-30T13:17:50.940Z,97568.00
2018-08-30T13:20:20.337Z,97570.00
2018-08-30T13:22:49.666Z,97566.00
2018-08-30T13:25:19.135Z,97577.00
2018-08-30T13:27:48.250Z,97585.00
2018-08-30T13:30:17.837Z,97571.00
2018-08-30T13:32:47.999Z,97574.00
2018-08-30T13:35:17.370Z,97572.00
2018-08-30T13:37:46.375Z,97576.00
2018-08-30T13:40:15.874Z,97569.00
2018-08-30T13:42:45.113Z,97565.00
2018-08-30T13:45:14.358Z,97569.00
2018-08-30T13:47:43.481Z,97587.00
2018-08-30T13:50:12.997Z,97576.00
2018-08-30T13:52:42.330Z,97572.00
2018-08-30T13:55:11.536Z,97577.00
2018-08-30T13:57:40.918Z,97577.00
2018-08-30T14:00:10.325Z,97586.00
2018-08-30T14:02:39.156Z,97579.00
2018-08-30T14:05:08.508Z,97588.00
2018-08-30T14:07:37.716Z,97588.00
2018-08-30T14:10:07.106Z,97586.00
2018-08-30T14:12:36.382Z,97590.00
2018-08-30T14:15:05.819Z,97589.00
2018-08-30T14:17:34.535Z,97587.00
2018-08-30T14:20:03.937Z,97594.00
2018-08-30T14:22:33.314Z,97587.00
2018-08-30T14:25:02.566Z,97592.00
2018-08-30T14:27:31.789Z,97587.00
2018-08-30T14:30:01.060Z,97590.00
2018-08-30T14:32:30.399Z,97593.00
2018-08-30T14:34:59.725Z,97589.00
2018-08-30T14:37:28.989Z,97591.00
2018-08-30T14:39:58.276Z,97605.00
2018-08-30T14:42:27.625Z,97609.00
2018-08-30T14:44:56.902Z,97613.00
2018-08-30T14:47:26.253Z,97611.00
2018-08-30T14:49:55.571Z,97607.00
2018-08-30T14:52:24.801Z,97615.00
2018-08-30T14:54:54.024Z,97620.00
2018-08-30T14:57:23.234Z,97618.00
2018-08-30T14:59:52.458Z,97616.00
2018-08-30T15:02:21.682Z,97612.00
2018-08-30T15:04:50.921Z,97611.00
2018-08-30T15:07:20.246Z,97619.00
2018-08-30T15:09:49.567Z,97607.00
2018-08-30T15:12:18.747Z,97622.00
2018-08-30T15:14:48.346Z,97617.00
2018-08-30T15:17:17.850Z,97613.00
2018-08-30T15:19:47.309Z,97621.00
2018-08-30T15:22:16.391Z,97621.00
2018-08-30T15:24:45.738Z,97627.00
2018-08-30T15:27:15.079Z,97625.00
2018-08-30T15:29:44.366Z,97633.00
2018-08-30T15:32:13.617Z,97637.00
2018-08-30T15:34:42.884Z,97642.00
2018-08-30T15:37:12.293Z,97641.00
2018-08-30T15:39:41.592Z,97629.00
2018-08-30T15:42:10.844Z,97631.00
2018-08-30T15:44:40.093Z,97635.00
2018-08-30T15:47:09.347Z,97642.00
2018-08-30T15:49:38.636Z,97628.00
2018-08-30T15:52:07.883Z,97639.00
2018-08-30T15:54:37.109Z,97628.00
2018-08-30T15:57:06.700Z,97631.00
2018-08-30T15:59:35.913Z,97633.00
2018-08-30T16:02:05.298Z,97627.00
2018-08-30T16:04:34.598Z,97624.00
2018-08-30T16:07:03.879Z,97636.00
2018-08-30T16:09:33.217Z,97626.00
2018-08-30T16:12:02.580Z,97630.00
2018-08-30T16:14:31.829Z,97634.00
2018-08-30T16:17:01.171Z,97643.00
2018-08-30T16:19:30.546Z,97644.00
2018-08-30T16:21:59.846Z,97643.00
2018-08-30T16:24:29.195Z,97645.00
2018-08-30T16:26:58.581Z,97642.00
2018-08-30T16:29:27.902Z,97649.00
2018-08-30T16:31:57.867Z,97639.00
2018-08-30T16:34:27.145Z,97642.00
2018-08-30T16:36:56.537Z,97639.00
2018-08-30T16:39:25.801Z,97631.00
2018-08-30T16:41:55.122Z,97637.00
2018-08-30T16:44:24.391Z,97629.00
2018-08-30T16:46:53.699Z,97628.00
2018-08-30T16:49:22.971Z,97632.00
2018-08-30T16:51:52.492Z,97636.00
2018-08-30T16:54:21.721Z,97631.00
2018-08-30T16:56:50.952Z,97629.00
2018-08-30T16:59:20.215Z,97630.00
2018-08-30T17:01:49.524Z,97631.00
2018-08-30T17:04:18.798Z,97632.00
2018-08-30T17:06:48.066Z,97634.00
2018-08-30T17:09:17.291Z,97638.00
2018-08-30T17:11:46.593Z,97634.00
2018-08-30T17:14:15.817Z,97633.00
2018-08-30T17:16:45.149Z,97639.00
2018-08-30T17:19:25.052Z,97643.00
2018-08-30T17:21:55.029Z,97638.00
2018-08-30T17:24:24.305Z,97646.00
2018-08-30T17:26:53.662Z,97646.00
2018-08-30T17:29:22.927Z,97646.00
2018-08-30T17:31:52.251Z,97647.00
2018-08-30T17:34:21.842Z,97649.00
2018-08-30T17:36:51.186Z,97647.00
2018-08-30T17:39:20.413Z,97641.00
2018-08-30T17:41:49.839Z,97646.00
2018-08-30T17:44:18.994Z,97645.00
2018-08-30T17:46:48.269Z,97647.00
2018-08-30T17:49:17.605Z,97652.00
2018-08-30T17:51:46.861Z,97637.00
2018-08-30T17:54:16.081Z,97643.00
2018-08-30T17:56:45.324Z,97648.00
2018-08-30T17:59:14.552Z,97642.00
2018-08-30T18:01:43.850Z,97649.00
2018-08-30T18:04:13.117Z,97645.00
2018-08-30T18:06:42.413Z,97652.00
2018-08-30T18:09:11.684Z,97652.00
2018-08-30T18:11:40.947Z,97657.00
2018-08-30T18:14:10.203Z,97648.00
2018-08-30T18:16:39.449Z,97655.00
2018-08-30T18:19:08.675Z,97655.00
2018-08-30T18:21:37.917Z,97651.00
2018-08-30T18:24:07.296Z,97659.00
2018-08-30T18:26:36.544Z,97658.00
2018-08-30T18:29:05.774Z,97667.00
2018-08-30T18:31:35.059Z,97665.00
2018-08-30T18:34:04.308Z,97675.00
2018-08-30T18:36:33.571Z,97680.00
2018-08-30T18:39:02.888Z,97678.00
2018-08-30T18:41:32.145Z,97682.00
2018-08-30T18:44:01.414Z,97687.00
2018-08-30T18:46:30.644Z,97685.00
2018-08-30T18:48:59.907Z,97687.00
2018-08-30T18:51:29.801Z,97693.00
2018-08-30T18:53:59.313Z,97690.00
2018-08-30T18:56:28.765Z,97702.00
2018-08-30T18:58:58.451Z,97698.00
2018-08-30T19:01:27.705Z,97698.00
2018-08-30T19:03:57.243Z,97699.00
2018-08-30T19:06:26.887Z,97702.00
2018-08-30T19:08:56.161Z,97706.00
2018-08-30T19:11:26.338Z,97708.00
2018-08-30T19:13:55.616Z,97706.00
2018-08-30T19:16:30.103Z,97714.00
2018-08-30T19:19:04.701Z,97707.00
2018-08-30T19:21:33.958Z,97714.00
2018-08-30T19:24:03.237Z,97712.00
2018-08-30T19:26:32.500Z,97714.00
2018-08-30T19:29:01.921Z,97710.00
2018-08-30T19:31:31.256Z,97707.00
2018-08-30T19:34:00.621Z,97709.00
2018-08-30T19:36:31.147Z,97721.00
2018-08-30T19:39:01.049Z,97716.00
2018-08-30T19:41:30.370Z,97728.00
2018-08-30T19:43:59.773Z,97725.00
2018-08-30T19:46:29.071Z,97724.00
2018-08-30T19:48:58.375Z,97732.00
2018-08-30T19:51:27.711Z,97732.00
2018-08-30T19:53:57.693Z,97742.00
2018-08-30T19:56:26.944Z,97733.00
2018-08-30T19:58:56.843Z,97732.00
2018-08-30T20:01:26.111Z,97735.00
2018-08-30T20:03:55.438Z,97735.00
2018-08-30T20:06:24.768Z,97739.00
2018-08-30T20:08:54.042Z,97733.00
2018-08-30T20:11:23.333Z,97738.00
2018-08-30T20:13:52.646Z,97738.00
2018-08-30T20:16:21.974Z,97737.00
2018-08-30T20:18:51.362Z,97734.00
2018-08-30T20:21:20.674Z,97738.00
2018-08-30T20:23:50.013Z,97736.00
2018-08-30T20:26:19.313Z,97743.00
2018-08-30T20:28:48.612Z,97745.00
2018-08-30T20:31:18.065Z,97749.00
2018-08-30T20:33:47.394Z,97748.00
2018-08-30T20:36:16.646Z,97750.00
2018-08-30T20:38:45.990Z,97751.00
2018-08-30T20:41:15.439Z,97753.00
2018-08-30T20:43:45.526Z,97750.00
2018-08-30T20:46:14.808Z,97750.00
2018-08-30T20:48:44.164Z,97753.00
2018-08-30T20:51:13.465Z,97750.00
2018-08-30T20:53:42.769Z,97749.00
2018-08-30T20:56:12.042Z,97755.00
2018-08-30T20:58:41.480Z,97746.00
2018-08-30T21:01:11.214Z,97748.00
2018-08-30T21:03:40.551Z,97755.00
2018-08-30T21:06:09.910Z,97766.00
2018-08-30T21:08:39.255Z,97758.00
2018-08-30T21:11:08.608Z,97758.00
2018-08-30T21:13:38.608Z,97772.00
2018-08-30T21:16:07.952Z,97765.00
2018-08-30T21:18:43.551Z,97760.00
2018-08-30T21:21:12.822Z,97770.00
2018-08-30T21:23:42.207Z,97774.00
2018-08-30T21:26:11.539Z,97770.00
2018-08-30T21:28:40.888Z,97770.00
2018-08-30T21:31:10.206Z,97772.00
2018-08-30T21:33:39.598Z,97775.00
2018-08-30T21:36:09.021Z,97786.00
2018-08-30T21:38:39.049Z,97782.00
2018-08-30T21:41:08.074Z,97790.00
2018-08-30T21:43:37.376Z,97791.00
2018-08-30T21:46:06.699Z,97688.00
2018-08-30T21:48:36.119Z,97772.00
2018-08-30T21:51:05.624Z,97786.00
2018-08-30T21:53:35.707Z,97785.00
2018-08-30T21:56:05.044Z,97786.00
2018-08-30T21:58:34.378Z,97782.00
2018-08-30T22:01:03.632Z,97786.00
2018-08-30T22:03:33.032Z,97786.00
2018-08-30T22:06:02.529Z,97788.00
2018-08-30T22:08:32.021Z,97784.00
2018-08-30T22:11:01.478Z,97785.00
2018-08-30T22:13:30.811Z,97789.00
2018-08-30T22:16:00.230Z,97781.00
2018-08-30T22:18:30.335Z,97780.00
2018-08-30T22:20:59.792Z,97781.00
2018-08-30T22:23:29.658Z,97781.00
2018-08-30T22:25:59.525Z,97781.00
2018-08-30T22:28:28.876Z,97778.00
2018-08-30T22:30:58.161Z,97781.00
2018-08-30T22:33:27.461Z,97784.00
2018-08-30T22:35:56.780Z,97781.00
2018-08-30T22:38:26.137Z,97769.00
2018-08-30T22:40:55.661Z,97769.00
2018-08-30T22:43:24.882Z,97774.00
2018-08-30T22:45:54.160Z,97775.00
2018-08-30T22:48:23.399Z,97773.00
2018-08-30T22:50:52.626Z,97780.00
2018-08-30T22:53:21.894Z,97779.00
2018-08-30T22:55:51.169Z,97774.00
2018-08-30T22:58:20.419Z,97775.00
2018-08-30T23:00:49.691Z,97765.00
2018-08-30T23:03:18.919Z,97773.00
2018-08-30T23:05:48.174Z,97769.00
2018-08-30T23:08:17.413Z,97768.00
2018-08-30T23:10:46.672Z,97775.00
2018-08-30T23:13:15.893Z,97772.00
2018-08-30T23:15:45.125Z,97775.00
2018-08-30T23:18:14.346Z,97773.00
2018-08-30T23:20:43.582Z,97769.00
2018-08-30T23:23:12.837Z,97768.00
2018-08-30T23:25:42.078Z,97766.00
2018-08-30T23:28:11.327Z,97760.00
2018-08-30T23:30:40.540Z,97762.00
2018-08-30T23:33:09.743Z,97758.00
2018-08-30T23:35:38.981Z,97765.00
2018-08-30T23:38:08.648Z,97768.00
2018-08-30T23:40:37.875Z,97766.00
2018-08-30T23:43:07.113Z,97765.00
2018-08-30T23:45:36.379Z,97774.00
2018-08-30T23:48:05.884Z,97778.00
2018-08-30T23:50:35.114Z,97778.00
2018-08-30T23:53:04.312Z,97781.00
2018-08-30T23:55:33.648Z,97784.00
2018-08-30T23:58:19.767Z,97768.00
